Time;durP1;ratioP1;P1;durP2;ratioP2;P2;SDS_P1;SDS_P2;PMS_P1;PMS_P2;Temp;Humidity;BMP_temperature;BMP_pressure;BME280_temperature;BME280_humidity;BME280_pressure;Samples;Min_cycle;Max_cycle;Signal;HPM_P1;HPM_P2
2021/10/31 00:00:15;;;;;;;;;;;16.90;99.90;;;;;;4997230;28;1269;-57
2021/10/31 00:02:41;;;;;;;;;;;16.90;99.90;;;;;;4996566;28;1658;-57
2021/10/31 00:05:07;;;;;;;;;;;16.90;99.90;;;;;;4996801;28;905;-56
2021/10/31 00:07:33;;;;;;;;;;;16.90;99.90;;;;;;4997329;28;1953;-56
2021/10/31 00:09:59;;;;;;;;;;;16.80;99.90;;;;;;4997286;28;890;-56
2021/10/31 00:12:25;;;;;;;;;;;16.80;99.90;;;;;;4996921;28;861;-57
2021/10/31 00:14:51;;;;;;;;;;;16.80;99.90;;;;;;4997010;28;768;-56
2021/10/31 00:17:19;;;;;;;;;;;16.80;99.90;;;;;;4996405;28;762;-56
2021/10/31 00:19:45;;;;;;;;;;;16.80;99.90;;;;;;4996829;28;866;-56
2021/10/31 00:22:11;;;;;;;;;;;16.80;99.90;;;;;;4996600;28;874;-57
2021/10/31 00:24:37;;;;;;;;;;;16.70;99.90;;;;;;4996852;28;817;-57
2021/10/31 00:27:03;;;;;;;;;;;16.70;99.90;;;;;;4996330;28;843;-56
2021/10/31 00:29:29;;;;;;;;;;;16.70;99.90;;;;;;4996671;28;1977;-56
2021/10/31 00:31:55;;;;;;;;;;;16.70;99.90;;;;;;4996530;28;900;-56
2021/10/31 00:34:21;;;;;;;;;;;16.70;99.90;;;;;;4996657;28;865;-56
2021/10/31 00:36:47;;;;;;;;;;;16.70;99.90;;;;;;4996261;28;762;-56
2021/10/31 00:39:13;;;;;;;;;;;16.70;99.90;;;;;;4996191;28;992;-56
2021/10/31 00:41:39;;;;;;;;;;;16.70;99.90;;;;;;4996796;28;863;-56
2021/10/31 00:44:05;;;;;;;;;;;16.70;99.90;;;;;;4996395;28;1010;-56
2021/10/31 00:46:31;;;;;;;;;;;16.70;99.90;;;;;;4995971;28;791;-56
2021/10/31 00:48:57;;;;;;;;;;;16.70;99.90;;;;;;4996311;28;1918;-56
2021/10/31 00:51:26;;;;;;;;;;;16.60;99.90;;;;;;4996740;28;926;-57
2021/10/31 00:53:53;;;;;;;;;;;16.60;99.90;;;;;;4996417;28;958;-57
2021/10/31 00:56:20;;;;;;;;;;;16.60;99.90;;;;;;4996213;28;862;-56
2021/10/31 00:58:46;;;;;;;;;;;16.60;99.90;;;;;;4996154;28;858;-56
2021/10/31 01:01:12;;;;;;;;;;;16.60;99.90;;;;;;4993830;28;1153;-57
2021/10/31 01:03:38;;;;;;;;;;;16.60;99.90;;;;;;4995662;28;898;-56
2021/10/31 01:06:27;;;;;;;;;;;16.60;99.90;;;;;;4996037;28;865;-56
2021/10/31 01:09:14;;;;;;;;;;;16.60;99.90;;;;;;4987210;28;1915;-56
2021/10/31 01:11:43;;;;;;;;;;;16.60;99.90;;;;;;4996368;28;826;-56
2021/10/31 01:14:21;;;;;;;;;;;16.50;99.90;;;;;;4996022;28;880;-56
2021/10/31 01:17:05;;;;;;;;;;;16.50;99.90;;;;;;4996308;28;892;-57
2021/10/31 01:19:43;;;;;;;;;;;16.50;99.90;;;;;;4996186;28;880;-56
2021/10/31 01:22:17;;;;;;;;;;;16.50;99.90;;;;;;4994189;28;937;-56
2021/10/31 01:24:49;;;;;;;;;;;16.50;99.90;;;;;;4996248;28;1036;-56
2021/10/31 01:27:37;;;;;;;;;;;16.50;99.90;;;;;;4995842;28;837;-57
2021/10/31 01:30:03;;;;;;;;;;;16.50;99.90;;;;;;4995895;28;1961;-56
2021/10/31 01:32:47;;;;;;;;;;;16.50;99.90;;;;;;4995667;28;901;-56
2021/10/31 01:35:29;;;;;;;;;;;16.50;99.90;;;;;;4995405;28;892;-56
2021/10/31 01:38:09;;;;;;;;;;;16.40;99.90;;;;;;4995513;28;810;-56
2021/10/31 01:40:42;;;;;;;;;;;16.40;99.90;;;;;;4996094;28;795;-56
2021/10/31 01:43:26;;;;;;;;;;;16.40;99.90;;;;;;4992796;28;829;-56
2021/10/31 01:46:18;;;;;;;;;;;16.40;99.90;;;;;;4996080;28;843;-56
2021/10/31 01:48:44;;;;;;;;;;;16.40;99.90;;;;;;4934801;29;1907;-56
2021/10/31 01:51:19;;;;;;;;;;;16.40;99.90;;;;;;4936255;29;877;-56
2021/10/31 01:53:51;;;;;;;;;;;16.40;99.90;;;;;;4935963;29;1184;-57
2021/10/31 01:56:18;;;;;;;;;;;16.40;99.90;;;;;;4936306;29;930;-56
2021/10/31 01:58:46;;;;;;;;;;;16.30;99.90;;;;;;4936007;29;1201;-56
2021/10/31 02:01:16;;;;;;;;;;;16.30;99.90;;;;;;4935856;29;1220;-56
2021/10/31 02:03:44;;;;;;;;;;;16.30;99.90;;;;;;4935761;29;1062;-56
2021/10/31 02:06:11;;;;;;;;;;;16.30;99.90;;;;;;4936222;29;943;-56
2021/10/31 02:08:38;;;;;;;;;;;16.30;99.90;;;;;;4936028;29;1959;-57
2021/10/31 02:11:05;;;;;;;;;;;16.30;99.90;;;;;;4935433;29;894;-56
2021/10/31 02:13:31;;;;;;;;;;;16.30;99.90;;;;;;4935838;29;1064;-56
2021/10/31 02:15:57;;;;;;;;;;;16.30;99.90;;;;;;4937294;29;984;-56
2021/10/31 02:18:24;;;;;;;;;;;16.30;99.90;;;;;;4939544;29;1061;-57
2021/10/31 02:20:51;;;;;;;;;;;16.30;99.90;;;;;;4939413;29;969;-56
2021/10/31 02:23:17;;;;;;;;;;;16.20;99.90;;;;;;4939318;29;971;-57
2021/10/31 02:25:43;;;;;;;;;;;16.20;99.90;;;;;;4973708;28;966;-56
2021/10/31 02:28:09;;;;;;;;;;;16.20;99.90;;;;;;4999234;28;1986;-57
2021/10/31 02:30:35;;;;;;;;;;;16.20;99.90;;;;;;4998402;28;898;-56
2021/10/31 02:33:01;;;;;;;;;;;16.20;99.90;;;;;;4998448;28;911;-56
2021/10/31 02:35:27;;;;;;;;;;;16.20;99.90;;;;;;4999165;28;821;-56
2021/10/31 02:37:53;;;;;;;;;;;16.20;99.90;;;;;;4998876;28;830;-56
2021/10/31 02:40:21;;;;;;;;;;;16.10;99.90;;;;;;4998618;28;865;-57
2021/10/31 02:42:47;;;;;;;;;;;16.10;99.90;;;;;;4998313;28;890;-56
2021/10/31 02:45:14;;;;;;;;;;;16.10;99.90;;;;;;4998691;28;825;-56
2021/10/31 02:47:42;;;;;;;;;;;16.10;99.90;;;;;;4998642;28;810;-56
2021/10/31 02:50:10;;;;;;;;;;;16.10;99.90;;;;;;4998155;28;1898;-56
2021/10/31 02:52:47;;;;;;;;;;;16.10;99.90;;;;;;4982137;28;990;-56
2021/10/31 02:55:18;;;;;;;;;;;16.10;99.90;;;;;;4996157;28;1138;-56
2021/10/31 02:57:51;;;;;;;;;;;16.10;99.90;;;;;;4998538;28;841;-56
2021/10/31 03:00:18;;;;;;;;;;;16.10;99.90;;;;;;4997931;28;1227;-56
2021/10/31 03:02:45;;;;;;;;;;;16.10;99.90;;;;;;4997833;28;813;-56
2021/10/31 03:05:11;;;;;;;;;;;16.10;99.90;;;;;;4998236;28;776;-56
2021/10/31 03:07:37;;;;;;;;;;;16.00;99.90;;;;;;4998270;28;839;-57
2021/10/31 03:10:04;;;;;;;;;;;16.00;99.90;;;;;;4998153;28;1981;-57
2021/10/31 03:12:30;;;;;;;;;;;16.00;99.90;;;;;;4997607;28;767;-56
2021/10/31 03:14:56;;;;;;;;;;;16.00;99.90;;;;;;4998376;28;845;-56
2021/10/31 03:17:21;;;;;;;;;;;16.00;99.90;;;;;;4997905;28;877;-57
2021/10/31 03:19:47;;;;;;;;;;;15.90;99.90;;;;;;4998402;28;872;-56
2021/10/31 03:22:13;;;;;;;;;;;15.90;99.90;;;;;;4997392;28;805;-56
2021/10/31 03:24:39;;;;;;;;;;;16.00;99.90;;;;;;4997983;28;841;-56
2021/10/31 03:27:06;;;;;;;;;;;15.90;99.90;;;;;;4997560;28;873;-56
2021/10/31 03:29:32;;;;;;;;;;;15.90;99.90;;;;;;4997498;28;1906;-56
2021/10/31 03:31:58;;;;;;;;;;;15.90;99.90;;;;;;4997104;28;869;-56
2021/10/31 03:34:24;;;;;;;;;;;15.90;99.90;;;;;;4997476;28;825;-56
2021/10/31 03:36:50;;;;;;;;;;;15.90;99.90;;;;;;4997837;28;865;-57
2021/10/31 03:39:16;;;;;;;;;;;15.90;99.90;;;;;;4997978;28;824;-56
2021/10/31 03:41:45;;;;;;;;;;;15.90;99.90;;;;;;4997539;28;889;-56
2021/10/31 03:44:15;;;;;;;;;;;15.90;99.90;;;;;;4997207;28;814;-56
2021/10/31 03:46:41;;;;;;;;;;;15.90;99.90;;;;;;4997851;28;1006;-56
2021/10/31 03:49:08;;;;;;;;;;;15.90;99.90;;;;;;4997152;28;1963;-56
2021/10/31 03:51:35;;;;;;;;;;;15.90;99.90;;;;;;4998080;28;983;-56
2021/10/31 03:54:01;;;;;;;;;;;15.90;99.90;;;;;;4996916;28;869;-56
2021/10/31 03:56:27;;;;;;;;;;;15.90;99.90;;;;;;4996765;28;1103;-56
2021/10/31 03:58:53;;;;;;;;;;;15.90;99.90;;;;;;4997558;28;838;-56
2021/10/31 04:01:19;;;;;;;;;;;15.80;99.90;;;;;;4997102;28;1790;-56
2021/10/31 04:03:45;;;;;;;;;;;15.80;99.90;;;;;;4979971;28;998;-56
2021/10/31 04:06:12;;;;;;;;;;;15.80;99.90;;;;;;4997425;28;1126;-56
2021/10/31 04:08:40;;;;;;;;;;;15.80;99.90;;;;;;4997065;28;1982;-56
2021/10/31 04:11:07;;;;;;;;;;;15.80;99.90;;;;;;4997219;28;1150;-56
2021/10/31 04:13:33;;;;;;;;;;;15.80;99.90;;;;;;4994617;28;1383;-56
2021/10/31 04:15:59;;;;;;;;;;;15.80;99.90;;;;;;4996908;28;865;-56
2021/10/31 04:18:25;;;;;;;;;;;15.80;99.90;;;;;;4996980;28;961;-56
2021/10/31 04:20:51;;;;;;;;;;;15.80;99.90;;;;;;4997208;28;977;-56
2021/10/31 04:23:17;;;;;;;;;;;15.80;99.90;;;;;;4996273;28;762;-56
2021/10/31 04:25:42;;;;;;;;;;;15.80;99.90;;;;;;4996325;28;1366;-56
2021/10/31 04:28:08;;;;;;;;;;;15.70;99.90;;;;;;4994831;28;1157;-56
2021/10/31 04:30:34;;;;;;;;;;;15.70;99.90;;;;;;4987288;28;980;-56
2021/10/31 04:33:00;;;;;;;;;;;15.70;99.90;;;;;;4996138;28;904;-56
2021/10/31 04:35:26;;;;;;;;;;;15.70;99.90;;;;;;4996348;28;842;-56
2021/10/31 04:37:56;;;;;;;;;;;15.70;99.90;;;;;;4996755;28;809;-56
2021/10/31 04:40:24;;;;;;;;;;;15.70;99.90;;;;;;4995912;28;778;-56
2021/10/31 04:42:53;;;;;;;;;;;15.70;99.90;;;;;;4996151;28;971;-56
2021/10/31 04:45:20;;;;;;;;;;;15.70;99.90;;;;;;4996096;28;1013;-56
2021/10/31 04:47:45;;;;;;;;;;;15.70;99.90;;;;;;4995103;28;1181;-56
2021/10/31 04:50:11;;;;;;;;;;;15.70;99.90;;;;;;4996590;28;1958;-56
2021/10/31 04:52:42;;;;;;;;;;;15.70;99.90;;;;;;4996216;28;858;-56
2021/10/31 04:55:09;;;;;;;;;;;15.70;99.90;;;;;;4996153;28;862;-56
2021/10/31 04:57:35;;;;;;;;;;;15.70;99.90;;;;;;4996378;28;844;-56
2021/10/31 05:00:03;;;;;;;;;;;15.70;99.90;;;;;;4996032;28;1327;-56
2021/10/31 05:02:29;;;;;;;;;;;15.70;99.90;;;;;;4996050;28;877;-56
2021/10/31 05:04:55;;;;;;;;;;;15.70;99.90;;;;;;4995834;28;897;-56
2021/10/31 05:07:21;;;;;;;;;;;15.60;99.90;;;;;;4996196;28;746;-56
2021/10/31 05:09:47;;;;;;;;;;;15.60;99.90;;;;;;4996142;28;1911;-56
2021/10/31 05:12:13;;;;;;;;;;;15.60;99.90;;;;;;4996115;28;806;-56
2021/10/31 05:14:39;;;;;;;;;;;15.60;99.90;;;;;;4995933;28;880;-57
2021/10/31 05:17:05;;;;;;;;;;;15.60;99.90;;;;;;4996201;28;1154;-56
2021/10/31 05:19:31;;;;;;;;;;;15.60;99.90;;;;;;4996174;28;909;-56
2021/10/31 05:21:57;;;;;;;;;;;15.60;99.90;;;;;;4996253;28;1020;-56
2021/10/31 05:24:23;;;;;;;;;;;15.60;99.90;;;;;;4995744;28;814;-56
2021/10/31 05:26:49;;;;;;;;;;;15.60;99.90;;;;;;4995791;28;1015;-56
2021/10/31 05:29:15;;;;;;;;;;;15.60;99.90;;;;;;4994127;28;1974;-56
2021/10/31 05:31:41;;;;;;;;;;;15.60;99.90;;;;;;4995724;28;1024;-56
2021/10/31 05:34:07;;;;;;;;;;;15.60;99.90;;;;;;4995791;28;995;-56
2021/10/31 05:36:35;;;;;;;;;;;15.60;99.90;;;;;;4995759;28;1123;-56
2021/10/31 05:39:01;;;;;;;;;;;15.60;99.90;;;;;;4995752;28;905;-56
2021/10/31 05:41:27;;;;;;;;;;;15.50;99.90;;;;;;4995999;28;894;-56
2021/10/31 05:43:52;;;;;;;;;;;15.50;99.90;;;;;;4995789;28;817;-56
2021/10/31 05:46:18;;;;;;;;;;;15.50;99.90;;;;;;4995705;28;862;-56
2021/10/31 05:48:44;;;;;;;;;;;15.50;99.90;;;;;;4995019;28;1962;-56
2021/10/31 05:51:10;;;;;;;;;;;15.50;99.90;;;;;;4991946;28;1383;-57
2021/10/31 05:53:36;;;;;;;;;;;15.50;99.90;;;;;;4998749;28;766;-56
2021/10/31 05:56:04;;;;;;;;;;;15.50;99.90;;;;;;4998552;28;910;-56
2021/10/31 05:58:31;;;;;;;;;;;15.50;99.90;;;;;;4999288;28;865;-56
2021/10/31 06:00:57;;;;;;;;;;;15.50;99.90;;;;;;4999483;28;1029;-56
2021/10/31 06:03:23;;;;;;;;;;;15.40;99.90;;;;;;4983147;28;2240;-56
2021/10/31 06:05:49;;;;;;;;;;;15.40;99.90;;;;;;4997695;28;1124;-56
2021/10/31 06:08:16;;;;;;;;;;;15.50;99.90;;;;;;5000040;28;953;-56
2021/10/31 06:10:43;;;;;;;;;;;15.40;99.90;;;;;;4999906;28;1910;-56
2021/10/31 06:13:09;;;;;;;;;;;15.40;99.90;;;;;;5000001;28;819;-56
2021/10/31 06:15:35;;;;;;;;;;;15.40;99.90;;;;;;5000023;28;1038;-56
2021/10/31 06:18:01;;;;;;;;;;;15.40;99.90;;;;;;4999406;28;878;-56
2021/10/31 06:20:27;;;;;;;;;;;15.40;99.90;;;;;;4999307;28;866;-56
2021/10/31 06:22:53;;;;;;;;;;;15.40;99.90;;;;;;4999602;28;773;-56
2021/10/31 06:25:19;;;;;;;;;;;15.40;99.90;;;;;;4999739;28;859;-56
2021/10/31 06:27:45;;;;;;;;;;;15.30;99.90;;;;;;4999476;28;822;-56
2021/10/31 06:30:11;;;;;;;;;;;15.40;99.90;;;;;;4999321;28;1932;-56
2021/10/31 06:32:38;;;;;;;;;;;15.30;99.90;;;;;;4999132;28;906;-56
2021/10/31 06:35:04;;;;;;;;;;;15.30;99.90;;;;;;4999427;28;886;-56
2021/10/31 06:37:30;;;;;;;;;;;15.40;99.90;;;;;;4999352;28;1002;-56
2021/10/31 06:39:56;;;;;;;;;;;15.30;99.90;;;;;;4999249;28;905;-56
2021/10/31 06:42:24;;;;;;;;;;;15.30;99.90;;;;;;4999414;28;1534;-56
2021/10/31 06:44:50;;;;;;;;;;;15.30;99.90;;;;;;4999366;28;873;-56
2021/10/31 06:47:16;;;;;;;;;;;15.30;99.90;;;;;;4999059;28;943;-56
2021/10/31 06:49:43;;;;;;;;;;;15.30;99.90;;;;;;4999045;28;1910;-56
2021/10/31 06:52:08;;;;;;;;;;;15.30;99.90;;;;;;4997740;28;1377;-56
2021/10/31 06:54:34;;;;;;;;;;;15.30;99.90;;;;;;4998621;28;888;-56
2021/10/31 06:57:00;;;;;;;;;;;15.30;99.90;;;;;;4996727;28;1346;-56
2021/10/31 06:59:26;;;;;;;;;;;15.30;99.90;;;;;;4998621;28;1066;-56
2021/10/31 07:01:52;;;;;;;;;;;15.30;99.90;;;;;;4997250;28;1388;-56
2021/10/31 07:04:18;;;;;;;;;;;15.40;99.90;;;;;;4998523;28;987;-56
2021/10/31 07:06:44;;;;;;;;;;;15.40;99.90;;;;;;4998893;28;752;-56
2021/10/31 07:09:10;;;;;;;;;;;15.40;99.90;;;;;;4998941;28;1971;-56
2021/10/31 07:11:36;;;;;;;;;;;15.40;99.90;;;;;;4998372;28;1196;-56
2021/10/31 07:14:02;;;;;;;;;;;15.40;99.90;;;;;;4999027;28;867;-56
2021/10/31 07:16:29;;;;;;;;;;;15.40;99.90;;;;;;4999000;28;901;-56
2021/10/31 07:18:55;;;;;;;;;;;15.40;99.90;;;;;;4998588;28;969;-56
2021/10/31 07:21:21;;;;;;;;;;;15.50;99.90;;;;;;4998131;28;927;-56
2021/10/31 07:23:47;;;;;;;;;;;15.50;99.90;;;;;;4998524;28;921;-56
2021/10/31 07:26:14;;;;;;;;;;;15.60;99.90;;;;;;4998615;28;1129;-56
2021/10/31 07:28:40;;;;;;;;;;;15.70;99.90;;;;;;4998345;28;1906;-56
2021/10/31 07:31:08;;;;;;;;;;;15.80;99.90;;;;;;4998375;28;781;-56
2021/10/31 07:33:34;;;;;;;;;;;15.90;99.90;;;;;;4998308;28;863;-56
2021/10/31 07:36:00;;;;;;;;;;;16.20;99.90;;;;;;4998314;28;814;-56
2021/10/31 07:38:27;;;;;;;;;;;16.30;99.90;;;;;;4998311;28;777;-57
2021/10/31 07:40:53;;;;;;;;;;;16.40;99.90;;;;;;4998082;28;869;-57
2021/10/31 07:43:19;;;;;;;;;;;16.50;99.90;;;;;;4998152;28;764;-57
2021/10/31 07:45:45;;;;;;;;;;;16.90;99.90;;;;;;4998539;28;835;-56
2021/10/31 07:48:11;;;;;;;;;;;16.90;99.90;;;;;;4997840;28;828;-56
2021/10/31 07:50:37;;;;;;;;;;;16.80;99.90;;;;;;4996118;28;1907;-57
2021/10/31 07:53:04;;;;;;;;;;;16.80;99.90;;;;;;4997456;28;910;-56
2021/10/31 07:55:33;;;;;;;;;;;16.80;99.90;;;;;;4997086;28;1349;-57
2021/10/31 07:58:00;;;;;;;;;;;16.90;99.90;;;;;;4998173;28;821;-57
2021/10/31 08:00:27;;;;;;;;;;;17.00;99.90;;;;;;4997542;28;1222;-57
2021/10/31 08:02:55;;;;;;;;;;;17.10;99.90;;;;;;4997125;28;1333;-57
2021/10/31 08:05:21;;;;;;;;;;;17.20;99.90;;;;;;4997743;28;856;-57
2021/10/31 08:07:47;;;;;;;;;;;17.30;99.90;;;;;;4997708;28;767;-57
2021/10/31 08:10:13;;;;;;;;;;;17.40;99.90;;;;;;4998016;28;1907;-57
2021/10/31 08:12:39;;;;;;;;;;;17.40;99.90;;;;;;4997709;28;810;-57
2021/10/31 08:15:06;;;;;;;;;;;17.50;99.90;;;;;;4997341;28;866;-57
2021/10/31 08:17:33;;;;;;;;;;;17.70;99.90;;;;;;4996850;28;811;-57
2021/10/31 08:19:59;;;;;;;;;;;17.70;99.90;;;;;;4997523;28;1015;-56
2021/10/31 08:22:25;;;;;;;;;;;17.60;99.90;;;;;;4997404;28;893;-57
2021/10/31 08:24:51;;;;;;;;;;;17.60;99.90;;;;;;4995972;28;1044;-57
2021/10/31 08:27:17;;;;;;;;;;;17.60;99.90;;;;;;4995529;28;1425;-57
2021/10/31 08:29:46;;;;;;;;;;;17.60;99.90;;;;;;4997173;28;1961;-57
2021/10/31 08:32:12;;;;;;;;;;;17.60;99.90;;;;;;4996966;28;937;-57
2021/10/31 08:34:38;;;;;;;;;;;17.50;99.90;;;;;;4997224;28;1049;-56
2021/10/31 08:37:04;;;;;;;;;;;17.50;99.90;;;;;;4997336;28;1018;-56
2021/10/31 08:39:30;;;;;;;;;;;17.50;99.90;;;;;;4997128;28;1152;-57
2021/10/31 08:41:57;;;;;;;;;;;17.50;99.90;;;;;;4995537;28;1168;-57
2021/10/31 08:44:23;;;;;;;;;;;17.40;99.90;;;;;;4994551;28;1373;-57
2021/10/31 08:46:50;;;;;;;;;;;17.40;99.90;;;;;;4994026;28;1195;-57
2021/10/31 08:49:17;;;;;;;;;;;17.40;99.90;;;;;;4996892;28;1966;-56
2021/10/31 08:51:43;;;;;;;;;;;17.40;99.90;;;;;;4993828;28;1377;-57
2021/10/31 08:54:09;;;;;;;;;;;17.40;99.90;;;;;;4992826;28;1335;-57
2021/10/31 08:56:36;;;;;;;;;;;17.40;99.90;;;;;;4989970;28;1493;-56
2021/10/31 08:59:02;;;;;;;;;;;17.30;99.90;;;;;;4991863;28;1184;-57
2021/10/31 09:01:29;;;;;;;;;;;17.30;99.90;;;;;;4996416;28;1068;-57
2021/10/31 09:03:55;;;;;;;;;;;17.30;99.90;;;;;;4994472;28;1213;-57
2021/10/31 09:06:24;;;;;;;;;;;17.30;99.90;;;;;;4996969;28;886;-57
2021/10/31 09:08:50;;;;;;;;;;;17.20;99.90;;;;;;4995338;28;953;-57
2021/10/31 09:11:16;;;;;;;;;;;17.20;99.90;;;;;;4996623;28;1902;-57
2021/10/31 09:13:42;;;;;;;;;;;17.20;99.90;;;;;;4996926;28;962;-57
2021/10/31 09:16:08;;;;;;;;;;;17.20;99.90;;;;;;4996591;28;794;-57
2021/10/31 09:18:35;;;;;;;;;;;17.10;99.90;;;;;;4996146;28;993;-57
2021/10/31 09:21:02;;;;;;;;;;;17.10;99.90;;;;;;4996520;28;848;-57
2021/10/31 09:23:28;;;;;;;;;;;17.10;99.90;;;;;;4996588;28;779;-57
2021/10/31 09:25:54;;;;;;;;;;;17.10;99.90;;;;;;4995521;28;1246;-56
2021/10/31 09:28:20;;;;;;;;;;;17.10;99.90;;;;;;4996166;28;1010;-57
2021/10/31 09:30:46;;;;;;;;;;;17.10;99.90;;;;;;4996387;28;1910;-57
2021/10/31 09:33:14;;;;;;;;;;;17.10;99.90;;;;;;4996061;28;985;-57
2021/10/31 09:35:46;;;;;;;;;;;17.20;99.90;;;;;;4996544;28;893;-57
2021/10/31 09:38:17;;;;;;;;;;;17.30;99.90;;;;;;4994080;28;968;-57
2021/10/31 09:40:43;;;;;;;;;;;17.40;99.90;;;;;;4995175;28;1326;-57
2021/10/31 09:43:09;;;;;;;;;;;17.60;99.90;;;;;;4996689;28;934;-57
2021/10/31 09:45:36;;;;;;;;;;;17.70;99.90;;;;;;4996154;28;956;-57
2021/10/31 09:48:02;;;;;;;;;;;17.80;99.90;;;;;;4994391;28;1271;-57
2021/10/31 09:50:37;;;;;;;;;;;18.00;99.90;;;;;;4992654;28;1969;-57
2021/10/31 09:53:04;;;;;;;;;;;18.10;99.90;;;;;;4990389;28;1448;-57
2021/10/31 09:55:30;;;;;;;;;;;18.50;99.90;;;;;;4989548;28;1493;-57
2021/10/31 09:57:57;;;;;;;;;;;18.60;99.90;;;;;;4993972;28;1287;-56
2021/10/31 10:00:38;;;;;;;;;;;18.70;99.90;;;;;;4995588;28;1114;-57
2021/10/31 10:03:22;;;;;;;;;;;18.70;99.90;;;;;;4995881;28;1076;-57
2021/10/31 10:05:49;;;;;;;;;;;18.70;99.90;;;;;;4995729;28;889;-57
2021/10/31 10:08:17;;;;;;;;;;;18.70;99.90;;;;;;4996250;28;818;-57
2021/10/31 10:10:43;;;;;;;;;;;18.70;99.90;;;;;;4995643;28;1981;-57
2021/10/31 10:13:28;;;;;;;;;;;18.70;99.90;;;;;;4990543;28;1435;-56
2021/10/31 10:16:12;;;;;;;;;;;18.80;99.90;;;;;;4980157;28;1389;-56
2021/10/31 10:18:38;;;;;;;;;;;18.80;99.90;;;;;;4994276;28;1117;-56
2021/10/31 10:21:15;;;;;;;;;;;18.80;99.90;;;;;;4995430;28;1184;-56
2021/10/31 10:23:52;;;;;;;;;;;18.70;99.90;;;;;;4994771;28;1288;-56
2021/10/31 10:26:24;;;;;;;;;;;18.70;99.90;;;;;;4994905;28;1153;-55
2021/10/31 10:28:50;;;;;;;;;;;18.70;99.90;;;;;;4994243;28;1176;-58
2021/10/31 10:31:21;;;;;;;;;;;18.80;99.90;;;;;;4992120;28;1902;-57
2021/10/31 10:33:48;;;;;;;;;;;18.90;99.90;;;;;;4993394;28;1309;-57
2021/10/31 10:36:14;;;;;;;;;;;18.90;99.90;;;;;;4994528;28;1330;-57
2021/10/31 10:38:42;;;;;;;;;;;19.00;99.90;;;;;;4995530;28;1104;-57
2021/10/31 10:41:28;;;;;;;;;;;19.10;99.90;;;;;;4998519;28;1176;-57
2021/10/31 10:43:54;;;;;;;;;;;19.20;99.90;;;;;;4998811;28;1247;-57
2021/10/31 10:46:21;;;;;;;;;;;19.40;99.90;;;;;;4997861;28;1122;-57
2021/10/31 10:48:54;;;;;;;;;;;19.30;99.90;;;;;;4997346;28;1312;-57
2021/10/31 10:51:20;;;;;;;;;;;19.20;99.90;;;;;;4992566;28;1899;-57
2021/10/31 10:53:46;;;;;;;;;;;19.10;99.90;;;;;;4997550;28;1348;-57
2021/10/31 10:56:12;;;;;;;;;;;19.00;99.90;;;;;;4997790;28;1419;-57
2021/10/31 10:58:49;;;;;;;;;;;18.90;99.90;;;;;;4997584;28;1704;-57
2021/10/31 11:01:18;;;;;;;;;;;18.90;99.90;;;;;;4998498;28;1203;-57
2021/10/31 11:03:44;;;;;;;;;;;18.80;99.90;;;;;;4998938;28;897;-57
2021/10/31 11:06:12;;;;;;;;;;;18.80;99.90;;;;;;4998569;28;1042;-57
2021/10/31 11:08:38;;;;;;;;;;;18.80;99.90;;;;;;4997540;28;1013;-57
2021/10/31 11:11:12;;;;;;;;;;;18.70;99.90;;;;;;4998953;28;1967;-57
2021/10/31 11:13:45;;;;;;;;;;;18.70;99.90;;;;;;4998740;28;1125;-57
2021/10/31 11:16:12;;;;;;;;;;;18.70;99.90;;;;;;4998841;28;730;-57
2021/10/31 11:18:38;;;;;;;;;;;18.60;99.90;;;;;;4997090;28;982;-57
2021/10/31 11:21:05;;;;;;;;;;;18.60;99.90;;;;;;4998452;28;871;-57
2021/10/31 11:23:34;;;;;;;;;;;18.60;99.90;;;;;;4994481;28;1192;-57
2021/10/31 11:26:01;;;;;;;;;;;18.50;99.90;;;;;;4994483;28;1427;-58
2021/10/31 11:28:29;;;;;;;;;;;18.60;99.90;;;;;;4996801;28;1042;-58
2021/10/31 11:30:56;;;;;;;;;;;18.50;99.90;;;;;;4996422;28;1961;-58
2021/10/31 11:33:22;;;;;;;;;;;18.30;99.90;;;;;;4997398;28;891;-58
2021/10/31 11:35:49;;;;;;;;;;;18.30;99.90;;;;;;4995649;28;1085;-58
2021/10/31 11:38:16;;;;;;;;;;;18.10;99.90;;;;;;4998004;28;964;-58
2021/10/31 11:40:50;;;;;;;;;;;18.00;99.90;;;;;;4998471;28;775;-58
2021/10/31 11:43:18;;;;;;;;;;;17.90;99.90;;;;;;4997690;28;783;-58
2021/10/31 11:45:45;;;;;;;;;;;17.90;99.90;;;;;;4997681;28;990;-58
2021/10/31 11:48:14;;;;;;;;;;;17.90;99.90;;;;;;4996989;28;1007;-57
2021/10/31 11:50:42;;;;;;;;;;;17.90;99.90;;;;;;4997884;28;1902;-57
2021/10/31 11:53:13;;;;;;;;;;;17.90;99.90;;;;;;4997639;28;1187;-58
2021/10/31 11:55:46;;;;;;;;;;;17.90;99.90;;;;;;4991615;28;802;-57
2021/10/31 11:58:13;;;;;;;;;;;17.90;99.90;;;;;;4997532;28;958;-57
2021/10/31 12:00:48;;;;;;;;;;;17.90;99.90;;;;;;4980688;28;1413;-57
2021/10/31 12:03:34;;;;;;;;;;;17.90;99.90;;;;;;4997538;28;916;-57
2021/10/31 12:06:00;;;;;;;;;;;17.90;99.90;;;;;;4997424;28;1659;-57
2021/10/31 12:08:45;;;;;;;;;;;17.90;99.90;;;;;;4996002;28;1271;-57
2021/10/31 12:11:11;;;;;;;;;;;17.90;99.90;;;;;;4997466;28;1982;-58
2021/10/31 12:13:41;;;;;;;;;;;17.90;99.90;;;;;;4997709;28;905;-57
2021/10/31 12:16:08;;;;;;;;;;;17.90;99.90;;;;;;4997195;28;898;-57
2021/10/31 12:18:53;;;;;;;;;;;17.90;99.90;;;;;;4991249;28;770;-57
2021/10/31 12:21:19;;;;;;;;;;;17.90;99.90;;;;;;4997362;28;750;-57
2021/10/31 12:24:02;;;;;;;;;;;17.90;99.90;;;;;;4997624;28;887;-57
2021/10/31 12:26:33;;;;;;;;;;;17.90;99.90;;;;;;4981100;28;1418;-57
2021/10/31 12:29:08;;;;;;;;;;;17.90;99.90;;;;;;4997682;28;855;-57
2021/10/31 12:31:34;;;;;;;;;;;17.90;99.90;;;;;;4997262;28;1911;-57
2021/10/31 12:34:16;;;;;;;;;;;17.90;99.90;;;;;;4997012;28;783;-57
2021/10/31 12:36:45;;;;;;;;;;;17.90;99.90;;;;;;4997130;28;781;-57
2021/10/31 12:39:40;;;;;;;;;;;17.80;99.90;;;;;;4996715;28;896;-57
2021/10/31 12:42:25;;;;;;;;;;;17.80;99.90;;;;;;4983635;28;1242;-57
2021/10/31 12:44:57;;;;;;;;;;;17.80;99.90;;;;;;4997043;28;1027;-57
2021/10/31 12:47:33;;;;;;;;;;;17.80;99.90;;;;;;4997030;28;818;-57
2021/10/31 12:50:07;;;;;;;;;;;17.80;99.90;;;;;;4996623;28;1899;-57
2021/10/31 12:52:33;;;;;;;;;;;17.80;99.90;;;;;;4997180;28;1160;-57
2021/10/31 12:55:05;;;;;;;;;;;17.70;99.90;;;;;;4996928;28;1062;-57
2021/10/31 12:57:31;;;;;;;;;;;17.70;99.90;;;;;;4997119;28;778;-57
2021/10/31 13:00:02;;;;;;;;;;;17.70;99.90;;;;;;4996339;28;1020;-57
2021/10/31 13:02:29;;;;;;;;;;;17.70;99.90;;;;;;4996889;28;813;-57
2021/10/31 13:04:56;;;;;;;;;;;17.70;99.90;;;;;;4996599;28;1001;-57
2021/10/31 13:07:37;;;;;;;;;;;17.70;99.90;;;;;;4994563;28;1165;-57
2021/10/31 13:10:03;;;;;;;;;;;17.70;99.90;;;;;;4996161;28;1910;-57
2021/10/31 13:12:29;;;;;;;;;;;17.70;99.90;;;;;;4996512;28;874;-57
2021/10/31 13:15:03;;;;;;;;;;;17.70;99.90;;;;;;4996359;28;862;-57
2021/10/31 13:17:33;;;;;;;;;;;17.70;99.90;;;;;;4996636;28;766;-57
2021/10/31 13:20:06;;;;;;;;;;;17.70;99.90;;;;;;4995154;28;1128;-57
2021/10/31 13:22:32;;;;;;;;;;;17.70;99.90;;;;;;4996488;28;835;-57
2021/10/31 13:24:58;;;;;;;;;;;17.70;99.90;;;;;;4996416;28;905;-57
2021/10/31 13:27:24;;;;;;;;;;;17.70;99.90;;;;;;4996547;28;1086;-57
2021/10/31 13:29:52;;;;;;;;;;;17.70;99.90;;;;;;4996457;28;1910;-57
2021/10/31 13:32:20;;;;;;;;;;;17.70;99.90;;;;;;4996374;28;806;-57
2021/10/31 13:34:47;;;;;;;;;;;17.70;99.90;;;;;;4995977;28;1159;-57
2021/10/31 13:37:13;;;;;;;;;;;17.60;99.90;;;;;;4995815;28;1123;-57
2021/10/31 13:39:40;;;;;;;;;;;17.70;99.90;;;;;;4996643;28;854;-57
2021/10/31 13:42:10;;;;;;;;;;;17.60;99.90;;;;;;4996557;28;858;-57
2021/10/31 13:44:37;;;;;;;;;;;17.60;99.90;;;;;;4996367;28;889;-57
2021/10/31 13:47:12;;;;;;;;;;;17.60;99.90;;;;;;4996432;28;936;-57
2021/10/31 13:49:46;;;;;;;;;;;17.60;99.90;;;;;;4995744;28;1981;-57
2021/10/31 13:52:13;;;;;;;;;;;17.60;99.90;;;;;;4996389;28;895;-57
2021/10/31 13:54:44;;;;;;;;;;;17.60;99.90;;;;;;4995819;28;914;-57
2021/10/31 13:57:17;;;;;;;;;;;17.60;99.90;;;;;;4993526;28;874;-57
2021/10/31 13:59:43;;;;;;;;;;;17.60;99.90;;;;;;4996112;28;897;-57
2021/10/31 14:02:16;;;;;;;;;;;17.60;99.90;;;;;;5014056;28;1862;-57
2021/10/31 14:04:42;;;;;;;;;;;17.60;99.90;;;;;;5014924;28;807;-57
2021/10/31 14:07:11;;;;;;;;;;;17.50;99.90;;;;;;5007674;28;1006;-57
2021/10/31 14:09:48;;;;;;;;;;;17.50;99.90;;;;;;4997365;28;779;-57
2021/10/31 14:12:18;;;;;;;;;;;17.50;99.90;;;;;;4998380;28;943;-57
2021/10/31 14:14:48;;;;;;;;;;;17.50;99.90;;;;;;4997954;28;873;-57
2021/10/31 14:17:15;;;;;;;;;;;17.50;99.90;;;;;;5000486;28;795;-57
2021/10/31 14:19:43;;;;;;;;;;;17.50;99.90;;;;;;5000327;28;762;-57
2021/10/31 14:22:10;;;;;;;;;;;17.50;99.90;;;;;;5000676;28;968;-57
2021/10/31 14:24:36;;;;;;;;;;;17.40;99.90;;;;;;5000549;28;872;-57
2021/10/31 14:27:15;;;;;;;;;;;17.40;99.90;;;;;;5000366;28;905;-57
2021/10/31 14:29:41;;;;;;;;;;;17.40;99.90;;;;;;4996739;28;1965;-57
2021/10/31 14:32:07;;;;;;;;;;;17.40;99.90;;;;;;5000308;28;835;-57
2021/10/31 14:34:52;;;;;;;;;;;17.40;99.90;;;;;;5000014;28;814;-57
2021/10/31 14:37:18;;;;;;;;;;;17.40;99.90;;;;;;5018883;28;928;-57
2021/10/31 14:39:44;;;;;;;;;;;17.40;99.90;;;;;;5018468;28;804;-57
2021/10/31 14:42:29;;;;;;;;;;;17.40;99.90;;;;;;5018155;28;849;-58
2021/10/31 14:44:58;;;;;;;;;;;17.40;99.90;;;;;;5018444;28;913;-57